Time;durP1;ratioP1;P1;durP2;ratioP2;P2;SDS_P1;SDS_P2;PMS_P1;PMS_P2;Temp;Humidity;BMP_temperature;BMP_pressure;BME280_temperature;BME280_humidity;BME280_pressure;Samples;Min_cycle;Max_cycle;Signal;HPM_P1;HPM_P2
2023/07/06 00:01:28;;;;;;;1.63;0.50;;;;;;;21.35;87.13;100447.50;5057541;28;20085;-70
2023/07/06 00:03:59;;;;;;;2.13;0.80;;;;;;;21.34;87.50;100451.19;5062771;28;20024;-71
2023/07/06 00:06:26;;;;;;;4.55;0.90;;;;;;;21.27;88.45;100442.47;5060503;28;20033;-70
2023/07/06 00:08:52;;;;;;;1.52;0.73;;;;;;;21.21;88.73;100451.28;5057839;28;20029;-70
2023/07/06 00:11:20;;;;;;;1.48;0.52;;;;;;;21.20;89.45;100452.28;5063449;28;20064;-71
2023/07/06 00:13:47;;;;;;;4.25;1.02;;;;;;;21.16;89.25;100459.03;5063480;28;20032;-70
2023/07/06 00:16:13;;;;;;;2.05;0.70;;;;;;;21.16;89.82;100459.84;5059577;28;20496;-70
2023/07/06 00:18:41;;;;;;;3.83;0.88;;;;;;;21.06;89.90;100453.41;5058213;28;20119;-70
2023/07/06 00:21:08;;;;;;;5.15;0.80;;;;;;;20.98;89.99;100456.28;5066447;28;21554;-70
2023/07/06 00:23:33;;;;;;;2.75;0.77;;;;;;;20.85;90.33;100462.47;5064835;28;20147;-70
2023/07/06 00:25:59;;;;;;;2.38;0.55;;;;;;;20.88;90.25;100460.19;5068743;28;20475;-70
2023/07/06 00:28:28;;;;;;;1.50;0.50;;;;;;;20.81;90.67;100461.25;5067064;28;20017;-70
2023/07/06 00:30:57;;;;;;;4.53;0.57;;;;;;;20.74;90.87;100471.91;5065451;28;20043;-71
2023/07/06 00:33:24;;;;;;;1.83;0.57;;;;;;;20.75;90.54;100462.94;5059185;28;20028;-71
2023/07/06 00:35:51;;;;;;;1.50;0.93;;;;;;;20.70;91.25;100462.75;5073517;28;20484;-70
2023/07/06 00:38:19;;;;;;;3.65;1.75;;;;;;;20.68;90.92;100466.63;5069399;28;20139;-71
2023/07/06 00:40:56;;;;;;;2.60;1.00;;;;;;;20.67;91.38;100465.81;5058378;28;20440;-70
2023/07/06 00:43:27;;;;;;;2.78;1.10;;;;;;;20.78;91.66;100465.16;5062956;28;20472;-70
2023/07/06 00:45:58;;;;;;;1.85;0.85;;;;;;;20.91;91.83;100461.63;5053659;28;20032;-70
2023/07/06 00:48:32;;;;;;;1.85;0.80;;;;;;;20.95;91.79;100462.00;5056029;28;20696;-70
2023/07/06 00:51:32;;;;;;;4.47;0.80;;;;;;;20.97;92.00;100470.56;5067608;28;20040;-70
2023/07/06 00:54:04;;;;;;;3.67;0.88;;;;;;;20.98;92.39;100477.47;5068017;28;20393;-70
2023/07/06 00:56:36;;;;;;;1.80;0.70;;;;;;;20.96;92.80;100476.88;5069129;28;20429;-70
2023/07/06 00:59:03;;;;;;;2.80;0.63;;;;;;;20.98;93.05;100478.28;5064961;28;20024;-70
2023/07/06 01:01:32;;;;;;;3.05;0.70;;;;;;;20.98;93.81;100483.59;5064035;28;20036;-70
2023/07/06 01:04:01;;;;;;;1.45;0.88;;;;;;;20.97;94.39;100483.78;5059047;28;20120;-71
2023/07/06 01:06:47;;;;;;;2.42;0.40;;;;;;;20.91;94.89;100487.28;5069700;28;20032;-70
2023/07/06 01:09:15;;;;;;;4.75;0.88;;;;;;;20.89;94.45;100492.78;5068433;28;20036;-70
2023/07/06 01:11:42;;;;;;;2.28;0.70;;;;;;;20.87;94.14;100497.50;5062902;28;20072;-70
2023/07/06 01:14:12;;;;;;;1.52;0.80;;;;;;;20.93;93.96;100495.84;5067807;28;20446;-70
2023/07/06 01:16:38;;;;;;;2.13;0.68;;;;;;;20.97;94.63;100502.34;5057859;28;20113;-70
2023/07/06 01:19:41;;;;;;;2.05;0.70;;;;;;;20.99;94.54;100501.09;5057257;28;20035;-70
2023/07/06 01:22:35;;;;;;;1.60;0.68;;;;;;;20.92;93.03;100492.38;5067021;28;20032;-70
2023/07/06 01:25:38;;;;;;;1.10;0.60;;;;;;;20.94;93.08;100498.28;5072678;28;20031;-70
2023/07/06 01:28:45;;;;;;;1.45;0.50;;;;;;;20.99;93.51;100510.88;5073341;28;20060;-70
2023/07/06 01:31:15;;;;;;;3.58;0.82;;;;;;;20.97;93.21;100523.53;5063323;28;20041;-70
2023/07/06 01:33:47;;;;;;;2.25;0.63;;;;;;;20.98;94.06;100528.63;5062865;28;20036;-70
2023/07/06 01:36:38;;;;;;;3.65;0.60;;;;;;;20.91;95.51;100533.13;5060895;28;20037;-70
2023/07/06 01:39:14;;;;;;;4.53;0.50;;;;;;;20.79;97.81;100551.53;5067887;28;20045;-71
2023/07/06 01:41:41;;;;;;;2.17;0.70;;;;;;;20.71;99.00;100566.81;5069770;28;20036;-72
2023/07/06 01:44:11;;;;;;;7.88;0.73;;;;;;;20.61;99.25;100566.44;5067467;28;20052;-71
2023/07/06 01:46:49;;;;;;;1.58;0.60;;;;;;;20.43;100.00;100580.31;5067311;28;20064;-72
2023/07/06 01:49:17;;;;;;;2.45;0.60;;;;;;;20.32;100.00;100575.63;5043653;28;20041;-72
2023/07/06 01:51:59;;;;;;;3.78;0.50;;;;;;;20.24;100.00;100579.28;5072014;28;20101;-72
2023/07/06 01:54:35;;;;;;;2.55;1.00;;;;;;;20.28;100.00;100577.88;5067516;28;20043;-72
2023/07/06 01:57:18;;;;;;;4.15;0.80;;;;;;;20.21;100.00;100583.16;5049761;28;20040;-71
2023/07/06 01:59:49;;;;;;;7.30;0.73;;;;;;;19.99;100.00;100584.38;5058970;28;20093;-71
2023/07/06 02:02:16;;;;;;;1.17;0.80;;;;;;;19.88;100.00;100587.63;5069378;28;20043;-71
2023/07/06 02:04:43;;;;;;;2.53;0.70;;;;;;;19.75;100.00;100575.22;5059682;28;20037;-72
2023/07/06 02:07:11;;;;;;;3.22;0.50;;;;;;;19.59;100.00;100572.13;5065520;28;20472;-71
2023/07/06 02:09:43;;;;;;;4.43;1.05;;;;;;;19.44;100.00;100569.63;5068340;28;20024;-67
2023/07/06 02:12:12;;;;;;;2.08;0.52;;;;;;;19.23;100.00;100557.41;5071611;28;20091;-71
2023/07/06 02:14:42;;;;;;;1.45;0.50;;;;;;;19.02;100.00;100554.88;5067386;28;20119;-71
2023/07/06 02:17:09;;;;;;;2.63;0.70;;;;;;;18.92;100.00;100551.78;5073830;28;20032;-72
2023/07/06 02:19:38;;;;;;;1.85;0.55;;;;;;;18.88;100.00;100551.38;5065500;28;20036;-72
2023/07/06 02:22:05;;;;;;;5.45;0.50;;;;;;;18.89;99.20;100553.00;5065165;28;20056;-72
2023/07/06 02:24:32;;;;;;;1.65;0.47;;;;;;;18.92;97.48;100544.66;5072588;28;20572;-72
2023/07/06 02:26:58;;;;;;;1.35;0.60;;;;;;;18.86;97.29;100548.13;5072234;28;20020;-72
2023/07/06 02:29:24;;;;;;;3.35;0.40;;;;;;;18.83;97.72;100554.59;5071839;28;20047;-71
2023/07/06 02:31:50;;;;;;;2.28;0.43;;;;;;;18.80;98.62;100547.09;5064601;28;20116;-71
2023/07/06 02:34:24;;;;;;;1.13;0.40;;;;;;;18.82;97.55;100544.25;5063995;28;20033;-71
2023/07/06 02:36:55;;;;;;;4.65;0.73;;;;;;;18.88;95.91;100552.19;5068251;28;20039;-71
2023/07/06 02:39:24;;;;;;;2.55;0.50;;;;;;;18.93;94.84;100540.22;5068292;28;20530;-71
2023/07/06 02:41:56;;;;;;;4.10;0.50;;;;;;;18.91;94.71;100558.88;5062369;28;20043;-71
2023/07/06 02:44:24;;;;;;;2.65;0.43;;;;;;;19.01;94.58;100563.81;5057696;28;20041;-71
2023/07/06 02:46:50;;;;;;;1.50;0.40;;;;;;;19.01;95.48;100555.88;5066163;28;20191;-72
2023/07/06 02:49:17;;;;;;;1.88;0.68;;;;;;;19.00;93.15;100556.91;5066834;28;20058;-71
2023/07/06 02:51:43;;;;;;;3.40;0.50;;;;;;;19.31;87.02;100565.16;5063142;28;20029;-71
2023/07/06 02:54:13;;;;;;;2.80;0.40;;;;;;;19.41;85.17;100565.56;5065224;28;20103;-71
2023/07/06 02:56:41;;;;;;;1.80;0.52;;;;;;;19.49;84.08;100565.38;5069229;28;20090;-71
2023/07/06 02:59:09;;;;;;;0.80;0.35;;;;;;;19.59;82.64;100565.03;5068900;28;20041;-71
2023/07/06 03:01:37;;;;;;;1.80;0.57;;;;;;;19.71;80.44;100565.25;5068679;28;20036;-72
2023/07/06 03:04:09;;;;;;;2.78;0.40;;;;;;;19.83;78.02;100571.56;5060535;28;20180;-70
2023/07/06 03:06:38;;;;;;;0.90;0.30;;;;;;;20.00;76.83;100567.50;5065149;28;20035;-72
2023/07/06 03:09:07;;;;;;;1.35;0.40;;;;;;;19.96;76.65;100566.25;5067933;28;20141;-71
2023/07/06 03:11:33;;;;;;;1.02;0.32;;;;;;;19.96;76.41;100558.34;5070203;28;20055;-71
2023/07/06 03:14:02;;;;;;;2.65;0.40;;;;;;;19.96;76.88;100558.34;5067389;28;20032;-71
2023/07/06 03:16:39;;;;;;;2.28;0.40;;;;;;;20.07;74.73;100560.38;5069637;28;20429;-70
2023/07/06 03:19:21;;;;;;;1.25;0.52;;;;;;;20.16;72.60;100553.06;5065542;28;20032;-71
2023/07/06 03:21:48;;;;;;;1.38;0.50;;;;;;;20.21;72.65;100562.00;5062492;28;20159;-71
2023/07/06 03:24:15;;;;;;;1.13;0.30;;;;;;;20.25;73.12;100551.00;5061941;28;20044;-71
2023/07/06 03:26:41;;;;;;;2.60;0.55;;;;;;;20.20;73.88;100556.91;5060542;28;20031;-72
2023/07/06 03:29:08;;;;;;;2.97;0.65;;;;;;;20.15;73.50;100554.88;5067612;28;20571;-71
2023/07/06 03:31:35;;;;;;;1.83;0.55;;;;;;;20.24;72.59;100555.47;5065049;28;20123;-72
2023/07/06 03:34:05;;;;;;;1.50;0.47;;;;;;;20.33;71.34;100564.00;5072963;28;20063;-71
2023/07/06 03:36:34;;;;;;;1.42;0.40;;;;;;;20.45;70.09;100555.25;5063025;28;20119;-72
2023/07/06 03:39:02;;;;;;;1.05;0.50;;;;;;;20.50;70.36;100559.94;5071570;28;20397;-72
2023/07/06 03:41:28;;;;;;;1.55;0.38;;;;;;;20.52;70.96;100552.59;5066247;28;20032;-72
2023/07/06 03:43:58;;;;;;;3.13;0.52;;;;;;;20.58;70.34;100550.97;5069446;28;20355;-72
2023/07/06 03:46:43;;;;;;;1.98;0.60;;;;;;;20.49;73.38;100556.47;5071963;28;20040;-72
2023/07/06 03:49:10;;;;;;;1.65;0.50;;;;;;;20.39;75.87;100552.63;5066160;28;20060;-72
2023/07/06 03:51:37;;;;;;;1.20;0.55;;;;;;;20.30;74.47;100559.97;5066048;28;20464;-72
2023/07/06 03:54:06;;;;;;;1.98;0.40;;;;;;;20.49;72.61;100547.72;5057069;28;20033;-73
2023/07/06 03:56:33;;;;;;;2.97;0.50;;;;;;;20.48;73.69;100538.16;5056551;28;20033;-71
2023/07/06 03:58:59;;;;;;;1.45;0.50;;;;;;;20.47;71.60;100531.25;5072454;28;20051;-72
2023/07/06 04:01:27;;;;;;;1.08;0.50;;;;;;;20.65;69.18;100533.22;5067175;28;20085;-71
2023/07/06 04:03:55;;;;;;;1.13;0.57;;;;;;;20.77;67.59;100535.03;5062961;28;20395;-71
2023/07/06 04:06:40;;;;;;;1.25;0.40;;;;;;;20.88;67.20;100530.88;5069002;28;20043;-72
2023/07/06 04:09:12;;;;;;;1.02;0.30;;;;;;;20.88;67.13;100530.88;5065051;28;20539;-71
2023/07/06 04:11:39;;;;;;;1.17;0.50;;;;;;;21.03;65.65;100522.69;5084784;28;20033;-72
2023/07/06 04:14:05;;;;;;;1.10;0.38;;;;;;;21.20;64.82;100531.78;5063115;28;20021;-72
2023/07/06 04:16:31;;;;;;;1.27;0.30;;;;;;;21.34;62.35;100529.88;5069853;28;20119;-70
2023/07/06 04:18:57;;;;;;;0.77;0.30;;;;;;;21.45;62.45;100527.34;5067752;28;20108;-71
2023/07/06 04:21:22;;;;;;;0.93;0.30;;;;;;;21.51;62.83;100521.19;5072627;28;20453;-73
2023/07/06 04:23:49;;;;;;;0.90;0.40;;;;;;;21.48;64.21;100518.16;5056339;28;20052;-72
2023/07/06 04:26:17;;;;;;;1.08;0.40;;;;;;;21.37;66.75;100529.44;5055610;28;20029;-72
2023/07/06 04:28:44;;;;;;;1.33;0.30;;;;;;;21.19;67.98;100522.19;5064041;28;20424;-71
2023/07/06 04:31:14;;;;;;;3.13;0.32;;;;;;;21.12;69.18;100527.53;5069652;28;20039;-70
2023/07/06 04:33:41;;;;;;;2.38;0.40;;;;;;;21.06;71.82;100531.03;5070062;28;20408;-71
2023/07/06 04:36:09;;;;;;;1.45;0.30;;;;;;;20.96;72.53;100537.78;5073850;28;20089;-71
2023/07/06 04:38:35;;;;;;;1.48;0.30;;;;;;;20.98;71.16;100533.91;5061692;28;20110;-72
2023/07/06 04:41:03;;;;;;;0.98;0.30;;;;;;;21.04;70.62;100534.91;5064890;28;20040;-71
2023/07/06 04:43:28;;;;;;;0.65;0.20;;;;;;;21.11;70.13;100541.00;5063029;28;20047;-71
2023/07/06 04:45:57;;;;;;;1.55;0.30;;;;;;;21.23;70.54;100531.38;5067376;28;20029;-71
2023/07/06 04:48:24;;;;;;;0.60;0.20;;;;;;;21.26;70.48;100533.59;5060949;28;20055;-71
2023/07/06 04:50:52;;;;;;;2.78;0.20;;;;;;;21.30;71.91;100529.47;5064124;28;20048;-71
2023/07/06 04:53:22;;;;;;;1.13;0.28;;;;;;;21.25;72.23;100521.38;5070260;28;20033;-70
2023/07/06 04:55:50;;;;;;;0.80;0.30;;;;;;;21.26;73.24;100523.00;5065464;28;20127;-71
2023/07/06 04:58:18;;;;;;;1.10;0.30;;;;;;;21.30;74.79;100518.06;5059792;28;20115;-71
2023/07/06 05:00:45;;;;;;;1.05;0.45;;;;;;;21.30;76.05;100521.53;5062350;28;20036;-71
2023/07/06 05:03:12;;;;;;;1.35;0.40;;;;;;;21.24;77.45;100516.31;5059081;28;20047;-71
2023/07/06 05:05:45;;;;;;;1.52;0.40;;;;;;;21.21;79.47;100520.19;5061648;28;20051;-71
2023/07/06 05:08:17;;;;;;;1.83;0.40;;;;;;;21.24;81.27;100514.47;5067351;28;20111;-71
2023/07/06 05:10:46;;;;;;;1.55;0.40;;;;;;;21.28;81.22;100518.28;5067952;28;20032;-70
2023/07/06 05:13:12;;;;;;;1.80;0.40;;;;;;;21.31;80.40;100530.28;5068348;28;20028;-72
2023/07/06 05:15:38;;;;;;;2.40;0.30;;;;;;;21.37;79.74;100519.66;5070398;28;20028;-72
2023/07/06 05:18:04;;;;;;;3.13;0.88;;;;;;;21.43;79.73;100524.09;5069010;28;20495;-72
2023/07/06 05:20:31;;;;;;;1.92;0.75;;;;;;;21.62;79.20;100542.75;5066012;28;20035;-72
2023/07/06 05:22:57;;;;;;;2.20;0.52;;;;;;;21.56;79.04;100541.75;5070413;28;20044;-72
2023/07/06 05:25:23;;;;;;;2.40;0.50;;;;;;;21.45;78.91;100537.16;5070199;28;20063;-72
2023/07/06 05:27:49;;;;;;;1.08;0.30;;;;;;;21.49;79.59;100535.69;5066930;28;20453;-71
2023/07/06 05:30:16;;;;;;;0.95;0.40;;;;;;;21.49;80.41;100528.56;5069415;28;20028;-72
2023/07/06 05:32:42;;;;;;;2.35;0.50;;;;;;;21.57;81.51;100545.22;5063060;28;20495;-71
2023/07/06 05:35:09;;;;;;;1.27;0.50;;;;;;;21.65;83.32;100537.03;5060549;28;20028;-72
2023/07/06 05:37:35;;;;;;;1.92;0.40;;;;;;;21.70;82.65;100538.00;5067276;28;20044;-72
2023/07/06 05:40:04;;;;;;;2.60;0.60;;;;;;;21.88;81.78;100547.84;5074089;28;20037;-72
2023/07/06 05:42:30;;;;;;;1.10;0.60;;;;;;;22.03;81.50;100545.72;5068338;28;20043;-72
2023/07/06 05:44:56;;;;;;;0.90;0.40;;;;;;;22.09;80.51;100552.00;5061567;28;20357;-71
2023/07/06 05:47:21;;;;;;;3.10;0.40;;;;;;;22.09;78.65;100552.81;5077302;28;20027;-71
2023/07/06 05:49:47;;;;;;;0.73;0.30;;;;;;;22.06;78.56;100553.22;5067052;28;20365;-71
2023/07/06 05:52:12;;;;;;;1.45;0.45;;;;;;;22.11;80.19;100550.75;5064719;28;20033;-72
2023/07/06 05:54:39;;;;;;;2.85;0.47;;;;;;;22.13;80.69;100551.34;5068315;28;20093;-72
2023/07/06 05:57:06;;;;;;;1.10;0.38;;;;;;;22.15;79.87;100554.59;5076419;28;20040;-72
2023/07/06 05:59:32;;;;;;;1.02;0.30;;;;;;;22.12;78.75;100562.16;5052280;28;20041;-72
2023/07/06 06:01:59;;;;;;;0.80;0.30;;;;;;;22.21;78.34;100557.41;5070867;28;20036;-72
2023/07/06 06:04:26;;;;;;;2.28;0.30;;;;;;;22.23;77.78;100561.44;5066916;28;20040;-72
2023/07/06 06:06:55;;;;;;;0.55;0.20;;;;;;;22.31;78.97;100573.63;5063233;28;20040;-73
2023/07/06 06:09:25;;;;;;;0.95;0.30;;;;;;;22.32;78.75;100569.94;5045213;28;20047;-73
2023/07/06 06:11:51;;;;;;;0.80;0.30;;;;;;;22.29;79.42;100571.19;5073732;28;20054;-72
2023/07/06 06:14:18;;;;;;;1.20;0.32;;;;;;;22.32;79.67;100580.53;5069161;28;20119;-72
2023/07/06 06:16:43;;;;;;;2.35;0.40;;;;;;;22.29;79.73;100578.31;5073246;28;20051;-72
2023/07/06 06:19:09;;;;;;;0.93;0.20;;;;;;;22.28;78.54;100582.00;5069821;28;20124;-72
2023/07/06 06:21:35;;;;;;;0.73;0.30;;;;;;;22.29;77.61;100571.19;5066968;28;20036;-72
2023/07/06 06:24:02;;;;;;;0.65;0.20;;;;;;;22.38;77.58;100574.38;5063157;28;20121;-71
2023/07/06 06:26:29;;;;;;;0.80;0.28;;;;;;;22.40;76.85;100572.31;5064355;28;20476;-68
2023/07/06 06:28:57;;;;;;;0.50;0.30;;;;;;;22.52;76.15;100567.91;5075050;28;20024;-68
2023/07/06 06:31:23;;;;;;;2.25;0.25;;;;;;;22.75;74.62;100573.34;5070260;28;20028;-68
2023/07/06 06:33:48;;;;;;;2.45;0.30;;;;;;;23.05;74.17;100576.09;5075259;28;20051;-69
2023/07/06 06:36:17;;;;;;;1.02;0.30;;;;;;;23.22;72.02;100576.28;5067315;28;20051;-68
2023/07/06 06:38:43;;;;;;;1.70;0.20;;;;;;;23.38;71.29;100586.28;5059429;28;20137;-69
2023/07/06 06:41:14;;;;;;;60.70;3.60;;;;;;;23.38;71.74;100583.63;5057013;28;20064;-71
2023/07/06 06:43:43;;;;;;;7.65;0.60;;;;;;;23.33;69.98;100588.00;5066540;28;20048;-71
2023/07/06 06:46:10;;;;;;;2.40;0.22;;;;;;;23.42;70.35;100584.81;5071635;28;20029;-70
2023/07/06 06:48:36;;;;;;;3.92;0.40;;;;;;;23.50;71.40;100594.31;5055681;28;20308;-70
2023/07/06 06:51:10;;;;;;;0.30;0.10;;;;;;;23.39;70.83;100587.91;5068448;28;20115;-70
2023/07/06 06:53:39;;;;;;;0.70;0.30;;;;;;;23.38;71.20;100588.13;5069000;28;20043;-70
2023/07/06 06:56:06;;;;;;;2.28;0.30;;;;;;;23.29;70.56;100598.28;5064869;28;20028;-70
2023/07/06 06:58:31;;;;;;;1.02;0.17;;;;;;;23.27;70.71;100595.03;5064608;28;20041;-70
2023/07/06 07:00:58;;;;;;;1.15;0.25;;;;;;;23.26;70.36;100585.44;5065195;28;20463;-70
2023/07/06 07:03:23;;;;;;;0.60;0.15;;;;;;;;;;5071113;28;20117;-71
2023/07/06 07:06:11;;;;;;;0.50;0.20;;;;;;;23.28;71.23;100594.00;5069590;28;20119;-69
2023/07/06 07:08:50;;;;;;;0.52;0.20;;;;;;;23.30;69.78;100583.94;5070491;28;20029;-69
2023/07/06 07:11:20;;;;;;;1.80;0.15;;;;;;;23.41;70.42;100587.69;5069456;28;20044;-69
2023/07/06 07:13:47;;;;;;;1.20;0.15;;;;;;;23.55;70.27;100596.34;5070502;28;20067;-69
2023/07/06 07:16:14;;;;;;;0.47;0.13;;;;;;;23.65;69.89;100591.25;5070103;28;20439;-69
2023/07/06 07:18:40;;;;;;;0.32;0.10;;;;;;;23.73;69.72;100590.94;5070240;28;20461;-69
2023/07/06 07:21:06;;;;;;;3.15;0.20;;;;;;;23.79;69.63;100593.50;5070361;28;20039;-70
2023/07/06 07:23:41;;;;;;;0.50;0.20;;;;;;;23.83;68.52;100589.34;5067566;28;20464;-69
2023/07/06 07:26:12;;;;;;;2.47;0.20;;;;;;;23.97;67.35;100584.63;5069501;28;20425;-69
2023/07/06 07:28:37;;;;;;;0.40;0.10;;;;;;;24.09;67.35;100585.47;5070123;28;20074;-70
2023/07/06 07:31:03;;;;;;;0.30;0.10;;;;;;;24.38;67.66;100589.06;5070145;28;20032;-69
2023/07/06 07:33:29;;;;;;;0.80;0.30;;;;;;;24.42;66.53;100592.06;5069783;28;20033;-68
2023/07/06 07:36:00;;;;;;;0.60;0.20;;;;;;;24.55;65.23;100585.72;5069816;28;20506;-69
2023/07/06 07:38:26;;;;;;;2.88;0.20;;;;;;;25.08;62.84;100582.81;5070048;28;20396;-69
2023/07/06 07:40:55;;;;;;;1.38;0.55;;;;;;;25.44;62.06;100579.78;5070008;28;20029;-68
2023/07/06 07:43:25;;;;;;;3.05;0.20;;;;;;;25.67;61.77;100578.06;5063507;28;20094;-69
2023/07/06 07:45:55;;;;;;;1.85;0.20;;;;;;;25.64;60.99;100574.00;5069511;28;20051;-69
2023/07/06 07:48:25;;;;;;;0.95;0.20;;;;;;;25.65;61.74;100585.50;5070089;28;20121;-69
2023/07/06 07:50:53;;;;;;;0.95;0.35;;;;;;;25.84;63.11;100581.56;5069471;28;20036;-68
2023/07/06 07:53:19;;;;;;;0.52;0.20;;;;;;;25.79;61.66;100584.13;5069618;28;20106;-68
2023/07/06 07:55:45;;;;;;;0.90;0.20;;;;;;;25.65;62.07;100585.50;5068346;28;20492;-68
2023/07/06 07:58:11;;;;;;;0.70;0.20;;;;;;;25.51;62.36;100584.16;5069227;28;20131;-68
2023/07/06 08:00:36;;;;;;;0.65;0.13;;;;;;;25.41;63.22;100590.13;5069291;28;20037;-68
2023/07/06 08:03:05;;;;;;;0.75;0.25;;;;;;;25.37;63.90;100597.78;5067616;28;20027;-68
2023/07/06 08:05:31;;;;;;;2.10;0.20;;;;;;;25.37;63.24;100599.66;5064104;28;20087;-68
2023/07/06 08:07:58;;;;;;;0.40;0.10;;;;;;;25.39;63.22;100597.56;5067898;28;20020;-68
2023/07/06 08:10:24;;;;;;;3.15;0.20;;;;;;;25.36;62.99;100593.50;5066185;28;20499;-67
2023/07/06 08:12:49;;;;;;;1.00;0.20;;;;;;;25.33;61.38;100599.31;5068145;28;20033;-68
2023/07/06 08:15:15;;;;;;;0.52;0.22;;;;;;;25.34;61.48;100590.25;5066241;28;20036;-68
2023/07/06 08:17:42;;;;;;;0.75;0.20;;;;;;;25.56;60.64;100593.03;5065417;28;20064;-68
2023/07/06 08:20:10;;;;;;;1.77;0.30;;;;;;;25.82;59.55;100591.66;5067490;28;20028;-67
2023/07/06 08:22:36;;;;;;;1.38;0.20;;;;;;;26.00;59.67;100591.41;5065617;28;20149;-68
2023/07/06 08:25:08;;;;;;;1.02;0.20;;;;;;;26.07;59.46;100593.91;5066339;28;20480;-67
2023/07/06 08:27:35;;;;;;;1.83;0.28;;;;;;;26.23;58.75;100594.97;5062562;28;20123;-68
2023/07/06 08:30:01;;;;;;;0.40;0.20;;;;;;;26.58;58.32;100595.50;5068014;28;20344;-68
2023/07/06 08:32:27;;;;;;;1.05;0.20;;;;;;;26.84;58.51;100593.16;5066401;28;20045;-67
2023/07/06 08:34:53;;;;;;;0.80;0.20;;;;;;;26.87;58.33;100596.16;5060724;28;20499;-67
2023/07/06 08:37:20;;;;;;;0.82;0.20;;;;;;;26.56;57.93;100594.91;5057198;28;20036;-68
2023/07/06 08:39:46;;;;;;;0.90;0.40;;;;;;;26.37;58.08;100598.94;5060058;28;20049;-67
2023/07/06 08:42:18;;;;;;;0.70;0.30;;;;;;;26.24;56.38;100599.25;5070282;28;20036;-67
2023/07/06 08:44:53;;;;;;;1.60;0.20;;;;;;;26.05;56.91;100594.16;5065501;28;20452;-67
2023/07/06 08:47:25;;;;;;;1.42;0.30;;;;;;;26.21;57.35;100591.72;5053671;28;20037;-67
2023/07/06 08:49:51;;;;;;;1.05;0.28;;;;;;;26.30;59.00;100593.75;5060096;28;20045;-67
2023/07/06 08:52:20;;;;;;;1.08;0.20;;;;;;;26.24;59.89;100588.56;5061736;28;20119;-67
2023/07/06 08:54:52;;;;;;;0.82;0.30;;;;;;;26.08;58.50;100590.19;5058328;28;20449;-68
2023/07/06 08:57:23;;;;;;;0.80;0.30;;;;;;;25.97;58.99;100591.91;5059884;28;20208;-67
2023/07/06 08:59:50;;;;;;;1.05;0.20;;;;;;;25.87;58.60;100599.75;5056634;28;20311;-68
2023/07/06 09:02:24;;;;;;;1.23;0.20;;;;;;;26.05;58.24;100599.50;5061413;28;20055;-68
2023/07/06 09:04:52;;;;;;;0.40;0.20;;;;;;;26.66;59.02;100602.28;5058347;28;20032;-67
2023/07/06 09:07:22;;;;;;;2.22;0.22;;;;;;;26.90;58.34;100603.66;5059895;28;20353;-68
2023/07/06 09:09:48;;;;;;;2.38;0.47;;;;;;;27.29;58.03;100607.06;5056252;28;20064;-68
2023/07/06 09:12:48;;;;;;;0.55;0.25;;;;;;;27.33;56.87;100597.50;5060636;28;20407;-68
2023/07/06 09:15:16;;;;;;;1.05;0.20;;;;;;;27.31;56.98;100596.94;5037676;28;20083;-68
2023/07/06 09:17:45;;;;;;;0.82;0.30;;;;;;;27.51;56.68;100604.34;5039009;28;20088;-67
2023/07/06 09:20:14;;;;;;;2.05;0.30;;;;;;;27.78;54.93;100592.84;5041703;28;20046;-68
2023/07/06 09:22:41;;;;;;;0.82;0.20;;;;;;;27.37;55.19;100603.97;5040203;28;20382;-68
2023/07/06 09:25:13;;;;;;;1.63;0.40;;;;;;;27.09;54.91;100614.88;5042910;28;20059;-67
2023/07/06 09:27:39;;;;;;;2.55;0.30;;;;;;;26.92;56.84;100622.13;5038197;28;20037;-67
2023/07/06 09:30:17;;;;;;;0.60;0.28;;;;;;;26.94;55.62;100614.66;5043947;28;20060;-68
2023/07/06 09:32:44;;;;;;;1.30;0.22;;;;;;;26.89;56.80;100617.28;5040905;28;20076;-67
2023/07/06 09:35:20;;;;;;;1.85;0.30;;;;;;;26.78;57.39;100627.84;5043897;28;20052;-67
2023/07/06 09:37:47;;;;;;;0.95;0.30;;;;;;;26.93;57.01;100629.09;5041105;28;20071;-69
2023/07/06 09:40:14;;;;;;;1.48;0.30;;;;;;;26.83;56.67;100623.63;5043835;28;20053;-67
2023/07/06 09:42:41;;;;;;;1.33;0.30;;;;;;;26.46;56.26;100624.19;5041449;28;20505;-67
2023/07/06 09:45:24;;;;;;;1.00;0.40;;;;;;;26.16;55.15;100624.50;5041295;28;20051;-67
2023/07/06 09:47:55;;;;;;;1.45;0.32;;;;;;;25.87;55.19;100618.44;5042942;28;20104;-67
2023/07/06 09:50:32;;;;;;;2.08;0.30;;;;;;;25.84;55.67;100616.25;5046184;28;20037;-67
2023/07/06 09:53:00;;;;;;;0.90;0.30;;;;;;;25.85;55.65;100604.53;5062116;28;20038;-67
2023/07/06 09:55:29;;;;;;;1.88;0.30;;;;;;;25.89;57.63;100608.31;5062081;28;20033;-66
2023/07/06 09:57:59;;;;;;;5.10;0.30;;;;;;;25.84;57.67;100599.44;5054826;28;20090;-67
2023/07/06 10:00:49;;;;;;;3.00;0.30;;;;;;;25.87;57.04;100594.41;5066689;28;20037;-68
2023/07/06 10:04:07;;;;;;;1.77;0.30;;;;;;;25.87;57.38;100602.41;5062198;28;20073;-67
2023/07/06 10:06:55;;;;;;;0.70;0.30;;;;;;;25.77;57.92;100615.59;5053421;28;20037;-67
2023/07/06 10:09:27;;;;;;;2.38;0.40;;;;;;;25.72;58.96;100623.50;5068747;28;20040;-67
2023/07/06 10:12:12;;;;;;;1.58;0.50;;;;;;;25.65;59.28;100638.84;5062356;28;20041;-67
2023/07/06 10:14:50;;;;;;;1.45;0.30;;;;;;;25.53;59.13;100641.53;5051629;28;20069;-67
2023/07/06 10:17:35;;;;;;;1.92;0.40;;;;;;;25.55;59.54;100636.78;5052386;28;20057;-67
2023/07/06 10:20:08;;;;;;;0.93;0.32;;;;;;;25.54;60.01;100642.34;5069910;28;20032;-67
2023/07/06 10:22:33;;;;;;;1.23;0.28;;;;;;;25.56;59.39;100640.25;5055897;28;20044;-67
2023/07/06 10:25:18;;;;;;;1.20;0.40;;;;;;;25.44;58.45;100645.66;5059088;28;20025;-67
2023/07/06 10:27:57;;;;;;;1.17;0.40;;;;;;;25.30;58.95;100650.44;5062328;28;20115;-67
2023/07/06 10:30:36;;;;;;;2.38;0.47;;;;;;;25.29;59.01;100643.50;5053894;28;20306;-67
2023/07/06 10:33:10;;;;;;;2.00;1.45;;;;;;;25.24;59.45;100646.06;5041532;28;20464;-67
2023/07/06 10:35:46;;;;;;;1.45;0.30;;;;;;;25.17;58.85;100653.38;5061673;28;20034;-67
2023/07/06 10:38:13;;;;;;;1.48;0.30;;;;;;;25.22;58.63;100655.34;5054135;28;20040;-67
2023/07/06 10:40:39;;;;;;;2.70;0.50;;;;;;;25.18;58.18;100665.66;5058471;28;20041;-66
2023/07/06 10:43:12;;;;;;;5.57;0.50;;;;;;;25.08;58.18;100662.78;5064054;28;20041;-68
2023/07/06 10:45:46;;;;;;;1.48;0.60;;;;;;;25.02;57.69;100666.41;5067075;28;20052;-67
2023/07/06 10:48:13;;;;;;;2.72;0.30;;;;;;;25.06;58.13;100664.88;5056667;28;20488;-67
2023/07/06 10:50:51;;;;;;;1.85;0.30;;;;;;;25.06;58.23;100667.53;5058148;28;20114;-67
2023/07/06 10:53:25;;;;;;;1.02;0.28;;;;;;;25.05;59.31;100671.25;5065265;28;20028;-67
2023/07/06 10:56:02;;;;;;;1.00;0.22;;;;;;;24.97;60.02;100674.31;5063061;28;20029;-67
2023/07/06 10:58:44;;;;;;;1.08;0.30;;;;;;;24.92;61.13;100674.16;5056950;28;20484;-68
2023/07/06 11:01:10;;;;;;;2.20;0.38;;;;;;;24.88;62.09;100673.00;5064206;28;20039;-67
2023/07/06 11:03:37;;;;;;;0.75;0.30;;;;;;;24.64;59.91;100675.66;5056724;28;20040;-67
2023/07/06 11:06:13;;;;;;;2.67;0.30;;;;;;;24.70;59.67;100679.25;5060186;28;20021;-67
2023/07/06 11:09:09;;;;;;;1.83;0.40;;;;;;;24.72;59.65;100671.84;5061341;28;20031;-68
2023/07/06 11:11:39;;;;;;;3.22;0.40;;;;;;;24.79;60.76;100673.34;5061579;28;20024;-67
2023/07/06 11:14:35;;;;;;;0.90;0.30;;;;;;;24.74;60.83;100675.91;5059709;28;20048;-67
2023/07/06 11:17:20;;;;;;;;;;;;;;;24.76;63.77;100684.47;5066154;28;20029;-67
2023/07/06 11:20:27;;;;;;;1.05;0.40;;;;;;;24.80;63.76;100695.47;5065222;28;19974;-67
2023/07/06 11:23:04;;;;;;;1.02;0.40;;;;;;;24.72;62.64;100699.28;5061716;28;20029;-67
2023/07/06 11:25:31;;;;;;;1.00;0.40;;;;;;;24.65;62.64;100708.44;5063053;28;20048;-68
2023/07/06 11:28:05;;;;;;;1.02;0.30;;;;;;;24.53;63.39;100715.63;5065937;28;20016;-67
2023/07/06 11:30:54;;;;;;;1.15;0.40;;;;;;;24.36;64.80;100720.81;5059385;28;20120;-67
2023/07/06 11:33:28;;;;;;;0.70;0.30;;;;;;;24.14;65.42;100712.50;5062882;28;20094;-67
2023/07/06 11:36:00;;;;;;;1.42;0.50;;;;;;;24.05;65.63;100712.03;5059254;28;20044;-67
2023/07/06 11:39:09;;;;;;;0.90;0.50;;;;;;;23.91;67.32;100713.25;5064032;28;20157;-66
2023/07/06 11:41:53;;;;;;;1.67;0.50;;;;;;;23.75;67.30;100714.69;5061376;28;20061;-67
2023/07/06 11:44:45;;;;;;;2.30;0.65;;;;;;;23.64;66.93;100704.81;5065481;28;20045;-67